createdAt,value
2018-07-09T00:00:58.370Z,19.20
2018-07-09T00:03:27.239Z,19.10
2018-07-09T00:05:56.179Z,19.10
2018-07-09T00:08:25.003Z,19.00
2018-07-09T00:11:00.747Z,18.90
2018-07-09T00:15:59.846Z,18.80
2018-07-09T00:18:28.797Z,18.70
2018-07-09T00:20:57.701Z,18.70
2018-07-09T00:23:26.613Z,18.60
2018-07-09T00:25:56.246Z,18.50
2018-07-09T00:30:53.883Z,18.50
2018-07-09T00:33:23.137Z,18.40
2018-07-09T00:35:51.998Z,18.40
2018-07-09T00:38:21.442Z,18.40
2018-07-09T00:40:50.216Z,18.30
2018-07-09T00:43:18.976Z,18.30
2018-07-09T00:45:47.858Z,18.20
2018-07-09T00:48:16.824Z,18.20
2018-07-09T00:50:45.636Z,18.20
2018-07-09T00:53:14.569Z,18.10
2018-07-09T00:55:43.462Z,18.10
2018-07-09T00:58:12.362Z,18.10
2018-07-09T01:00:41.388Z,18.00
2018-07-09T01:03:10.272Z,18.00
2018-07-09T01:05:39.104Z,17.90
2018-07-09T01:08:08.026Z,17.90
2018-07-09T01:10:46.774Z,17.80
2018-07-09T01:13:15.738Z,17.80
2018-07-09T01:15:44.564Z,17.70
2018-07-09T01:18:13.352Z,17.70
2018-07-09T01:20:42.225Z,17.70
2018-07-09T01:23:10.977Z,17.60
2018-07-09T01:25:39.822Z,17.60
2018-07-09T01:28:08.641Z,17.60
2018-07-09T01:30:37.489Z,17.60
2018-07-09T01:33:06.295Z,17.50
2018-07-09T01:35:35.104Z,17.50
2018-07-09T01:38:04.090Z,17.40
2018-07-09T01:40:32.888Z,17.40
2018-07-09T01:43:01.643Z,17.40
2018-07-09T01:45:30.450Z,17.40
2018-07-09T01:47:59.349Z,17.30
2018-07-09T01:50:28.239Z,17.30
2018-07-09T01:52:57.056Z,17.30
2018-07-09T01:55:25.947Z,17.20
2018-07-09T01:57:54.793Z,17.20
2018-07-09T02:00:23.616Z,17.20
2018-07-09T02:02:52.536Z,17.10
2018-07-09T02:05:21.409Z,17.10
2018-07-09T02:07:50.216Z,17.00
2018-07-09T02:10:18.961Z,17.00
2018-07-09T02:12:47.823Z,17.00
2018-07-09T02:15:16.698Z,17.00
2018-07-09T02:17:45.525Z,17.00
2018-07-09T02:20:14.469Z,17.00
2018-07-09T02:22:43.363Z,17.00
2018-07-09T02:25:12.141Z,16.90
2018-07-09T02:27:41.014Z,16.90
2018-07-09T02:30:09.965Z,16.80
2018-07-09T02:32:38.883Z,16.70
2018-07-09T02:35:07.723Z,16.60
2018-07-09T02:37:36.629Z,16.60
2018-07-09T02:40:05.637Z,16.50
2018-07-09T02:42:34.424Z,16.40
2018-07-09T02:45:03.496Z,16.40
2018-07-09T02:47:32.457Z,16.40
2018-07-09T02:50:01.676Z,16.30
2018-07-09T02:52:30.527Z,16.30
2018-07-09T02:54:59.353Z,16.20
2018-07-09T02:57:28.229Z,16.20
2018-07-09T02:59:57.124Z,16.20
2018-07-09T03:02:25.978Z,16.10
2018-07-09T03:04:54.849Z,16.10
2018-07-09T03:07:23.752Z,16.10
2018-07-09T03:09:52.596Z,16.10
2018-07-09T03:12:21.590Z,16.10
2018-07-09T03:14:50.564Z,16.10
2018-07-09T03:17:19.399Z,16.20
2018-07-09T03:19:48.270Z,16.20
2018-07-09T03:22:16.999Z,16.20
2018-07-09T03:24:45.900Z,16.20
2018-07-09T03:27:14.634Z,16.20
2018-07-09T03:29:43.449Z,16.20
2018-07-09T03:32:12.302Z,16.20
2018-07-09T03:34:41.169Z,16.20
2018-07-09T03:37:09.896Z,16.30
2018-07-09T03:39:38.747Z,16.30
2018-07-09T03:44:36.139Z,16.30
2018-07-09T03:47:05.376Z,16.40
2018-07-09T03:49:34.428Z,16.40
2018-07-09T03:52:03.340Z,16.40
2018-07-09T03:54:32.267Z,16.40
2018-07-09T03:57:01.078Z,16.40
2018-07-09T03:59:29.944Z,16.40
2018-07-09T04:01:58.905Z,16.50
2018-07-09T04:04:27.958Z,16.50
2018-07-09T04:06:57.165Z,16.60
2018-07-09T04:09:26.419Z,16.60
2018-07-09T04:12:01.494Z,16.60
2018-07-09T04:14:30.481Z,16.70
2018-07-09T04:16:59.255Z,16.80
2018-07-09T04:19:28.064Z,16.90
2018-07-09T04:21:56.875Z,17.00
2018-07-09T04:24:25.639Z,17.20
2018-07-09T04:26:54.971Z,17.30
2018-07-09T04:29:23.780Z,17.50
2018-07-09T04:31:52.709Z,17.60
2018-07-09T04:36:50.004Z,17.80
2018-07-09T04:39:18.756Z,17.80
2018-07-09T04:41:47.580Z,17.90
2018-07-09T04:44:16.447Z,18.00
2018-07-09T04:46:45.368Z,18.20
2018-07-09T04:49:14.200Z,18.70
2018-07-09T04:51:43.044Z,19.50
2018-07-09T04:54:12.065Z,20.50
2018-07-09T04:56:40.930Z,21.50
2018-07-09T04:59:09.680Z,22.20
2018-07-09T05:01:38.431Z,22.80
2018-07-09T05:04:07.341Z,23.20
2018-07-09T05:06:36.048Z,23.40
2018-07-09T05:09:05.786Z,23.60
2018-07-09T05:11:34.656Z,24.00
2018-07-09T05:14:03.720Z,24.70
2018-07-09T05:16:32.488Z,25.50
2018-07-09T05:19:01.352Z,26.20
2018-07-09T05:21:30.184Z,26.50
2018-07-09T05:23:59.140Z,26.80
2018-07-09T05:26:27.913Z,27.20
2018-07-09T05:28:57.712Z,27.50
2018-07-09T05:31:26.484Z,27.90
2018-07-09T05:33:55.470Z,28.20
2018-07-09T05:36:24.412Z,28.40
2018-07-09T05:38:53.702Z,28.80
2018-07-09T05:41:22.642Z,28.70
2018-07-09T05:43:51.706Z,28.30
2018-07-09T05:46:20.524Z,28.40
2018-07-09T05:48:49.564Z,28.80
2018-07-09T05:51:18.376Z,29.40
2018-07-09T05:53:47.286Z,29.40
2018-07-09T05:56:16.382Z,29.80
2018-07-09T05:58:45.390Z,30.50
2018-07-09T06:01:14.220Z,30.50
2018-07-09T06:03:42.992Z,30.70
2018-07-09T06:06:11.798Z,30.50
2018-07-09T06:08:40.590Z,29.80
2018-07-09T06:11:10.703Z,29.00
2018-07-09T06:13:39.665Z,28.00
2018-07-09T06:16:08.640Z,27.40
2018-07-09T06:18:37.467Z,27.00
2018-07-09T06:21:06.506Z,26.60
2018-07-09T06:23:35.440Z,26.20
2018-07-09T06:26:04.170Z,27.10
2018-07-09T06:31:01.324Z,28.90
2018-07-09T06:33:30.249Z,29.90
2018-07-09T06:35:59.342Z,31.20
2018-07-09T06:38:28.172Z,32.30
2018-07-09T06:40:57.007Z,32.50
2018-07-09T06:43:25.905Z,32.10
2018-07-09T06:45:54.709Z,32.10
2018-07-09T06:48:23.668Z,32.30
2018-07-09T06:50:52.693Z,32.70
2018-07-09T06:53:21.506Z,33.50
2018-07-09T06:55:50.398Z,32.90
2018-07-09T06:58:19.176Z,31.50
2018-07-09T07:00:47.975Z,29.60
2018-07-09T07:03:16.892Z,27.70
2018-07-09T07:05:45.736Z,26.50
2018-07-09T07:08:14.666Z,25.60
2018-07-09T07:10:43.567Z,25.00
2018-07-09T07:13:12.516Z,24.80
2018-07-09T07:15:41.350Z,24.70
2018-07-09T07:18:10.250Z,24.40
2018-07-09T07:20:39.127Z,24.30
2018-07-09T07:23:07.956Z,24.30
2018-07-09T07:25:36.718Z,24.30
2018-07-09T07:28:05.617Z,24.20
2018-07-09T07:30:34.440Z,24.10
2018-07-09T07:33:03.345Z,24.10
2018-07-09T07:35:32.614Z,23.80
2018-07-09T07:38:01.497Z,23.50
2018-07-09T07:40:30.326Z,23.50
2018-07-09T07:42:59.205Z,23.60
2018-07-09T07:45:28.056Z,23.60
2018-07-09T07:47:56.747Z,23.70
2018-07-09T07:50:25.932Z,24.00
2018-07-09T07:52:54.744Z,23.90
2018-07-09T07:55:23.780Z,23.80
2018-07-09T07:57:52.782Z,23.90
2018-07-09T08:00:21.708Z,24.00
2018-07-09T08:02:50.573Z,24.20
2018-07-09T08:05:19.584Z,24.30
2018-07-09T08:07:48.384Z,24.40
2018-07-09T08:10:17.312Z,24.70
2018-07-09T08:13:27.173Z,24.60
2018-07-09T08:15:15.108Z,24.60
2018-07-09T08:17:44.032Z,24.90
2018-07-09T08:20:12.880Z,25.10
2018-07-09T08:22:41.781Z,25.40
2018-07-09T08:25:10.770Z,25.50
2018-07-09T08:27:39.468Z,25.50
2018-07-09T08:30:08.312Z,25.50
2018-07-09T08:32:37.112Z,25.60
2018-07-09T08:35:05.958Z,25.70
2018-07-09T08:37:34.772Z,25.60
2018-07-09T08:40:03.695Z,25.70
2018-07-09T08:42:32.733Z,25.60
2018-07-09T08:45:01.550Z,25.80
2018-07-09T08:47:30.279Z,26.00
2018-07-09T08:49:59.180Z,26.30
2018-07-09T08:52:27.978Z,26.30
2018-07-09T08:54:56.914Z,26.50
2018-07-09T08:57:25.764Z,26.80
2018-07-09T08:59:54.462Z,26.90
2018-07-09T09:02:23.248Z,26.90
2018-07-09T09:04:52.104Z,26.90
2018-07-09T09:07:20.930Z,26.80
2018-07-09T09:09:49.868Z,26.70
2018-07-09T09:12:18.834Z,26.60
2018-07-09T09:14:47.922Z,26.80
2018-07-09T09:17:16.775Z,26.90
2018-07-09T09:19:45.536Z,26.90
2018-07-09T09:22:14.365Z,26.90
2018-07-09T09:24:43.168Z,27.00
2018-07-09T09:27:12.001Z,26.90
2018-07-09T09:29:40.844Z,26.70
2018-07-09T09:32:09.651Z,26.70
2018-07-09T09:34:38.384Z,26.60
2018-07-09T09:37:07.622Z,26.70
2018-07-09T09:39:37.190Z,26.40
2018-07-09T09:42:06.528Z,26.30
2018-07-09T09:44:35.718Z,26.30
2018-07-09T09:47:04.759Z,26.50
2018-07-09T09:49:33.634Z,26.50
2018-07-09T09:52:02.613Z,26.90
2018-07-09T09:54:31.506Z,27.00
2018-07-09T09:57:00.560Z,27.10
2018-07-09T09:59:29.486Z,27.10
2018-07-09T10:01:58.270Z,27.10
2018-07-09T10:04:27.133Z,27.10
2018-07-09T10:06:55.988Z,27.20
2018-07-09T10:09:24.833Z,27.10
2018-07-09T10:11:54.080Z,26.90
2018-07-09T10:14:22.860Z,26.80
2018-07-09T10:16:51.784Z,26.70
2018-07-09T10:19:20.563Z,26.50
2018-07-09T10:21:49.398Z,26.60
2018-07-09T10:24:18.316Z,26.70
2018-07-09T10:26:47.204Z,27.00
2018-07-09T10:29:16.026Z,27.30
2018-07-09T10:31:44.872Z,27.60
2018-07-09T10:34:13.660Z,27.60
2018-07-09T10:36:42.511Z,27.50
2018-07-09T10:39:11.451Z,27.80
2018-07-09T10:41:40.246Z,27.80
2018-07-09T10:44:09.024Z,27.80
2018-07-09T10:46:37.856Z,28.00
2018-07-09T10:49:06.758Z,28.10
2018-07-09T10:51:35.673Z,28.00
2018-07-09T10:56:32.863Z,28.10
2018-07-09T10:59:01.815Z,28.10
2018-07-09T11:01:31.148Z,28.20
2018-07-09T11:06:28.515Z,27.90
2018-07-09T11:08:57.637Z,27.90
2018-07-09T11:11:26.475Z,28.00
2018-07-09T11:13:55.358Z,27.80
2018-07-09T11:16:24.206Z,27.70
2018-07-09T11:18:52.834Z,27.70
2018-07-09T11:21:21.707Z,27.80
2018-07-09T11:23:50.491Z,28.00
2018-07-09T11:26:19.480Z,28.10
2018-07-09T11:28:48.510Z,28.10
2018-07-09T11:31:17.352Z,28.10
2018-07-09T11:33:46.155Z,28.50
2018-07-09T11:36:15.019Z,28.50
2018-07-09T11:38:43.785Z,28.70
2018-07-09T11:41:12.678Z,29.60
2018-07-09T11:46:10.085Z,31.40
2018-07-09T11:48:38.953Z,31.90
2018-07-09T11:51:07.816Z,32.30
2018-07-09T11:53:36.773Z,32.70
2018-07-09T11:56:05.713Z,32.40
2018-07-09T11:58:34.600Z,31.90
2018-07-09T12:01:03.386Z,31.10
2018-07-09T12:03:32.226Z,31.40
2018-07-09T12:06:01.535Z,31.20
2018-07-09T12:08:30.910Z,31.10
2018-07-09T12:10:59.781Z,31.30
2018-07-09T12:13:28.567Z,31.10
2018-07-09T12:15:57.571Z,31.20
2018-07-09T12:18:26.589Z,31.20
2018-07-09T12:20:55.379Z,31.20
2018-07-09T12:23:24.211Z,31.50
2018-07-09T12:25:53.080Z,31.10
2018-07-09T12:28:21.947Z,31.60
2018-07-09T12:30:50.819Z,32.40
2018-07-09T12:35:48.221Z,29.90
2018-07-09T12:38:17.141Z,30.00
2018-07-09T12:40:46.047Z,30.30
2018-07-09T12:43:14.677Z,30.00
2018-07-09T12:45:43.689Z,29.10
2018-07-09T12:48:12.535Z,28.90
2018-07-09T12:50:41.527Z,29.90
2018-07-09T12:53:10.413Z,31.40
2018-07-09T12:55:39.494Z,32.40
2018-07-09T12:58:08.316Z,32.10
2018-07-09T13:00:37.238Z,32.60
2018-07-09T13:03:06.072Z,33.30
2018-07-09T13:05:35.481Z,32.80
2018-07-09T13:08:04.305Z,32.40
2018-07-09T13:10:33.213Z,32.40
2018-07-09T13:13:02.071Z,32.60
2018-07-09T13:15:30.855Z,32.70
2018-07-09T13:20:28.218Z,32.40
2018-07-09T13:22:57.241Z,32.30
2018-07-09T13:25:26.438Z,32.20
2018-07-09T13:27:55.611Z,32.10
2018-07-09T13:30:24.877Z,32.60
2018-07-09T13:32:53.685Z,33.40
2018-07-09T13:35:22.707Z,33.50
2018-07-09T13:37:51.569Z,33.50
2018-07-09T13:40:20.387Z,31.90
2018-07-09T13:42:49.285Z,31.50
2018-07-09T13:45:18.158Z,32.20
2018-07-09T13:47:46.823Z,31.70
2018-07-09T13:50:15.606Z,31.00
2018-07-09T13:52:44.413Z,29.90
2018-07-09T13:55:13.374Z,28.90
2018-07-09T13:57:42.223Z,28.00
2018-07-09T14:00:11.447Z,27.40
2018-07-09T14:02:40.303Z,27.20
2018-07-09T14:05:08.692Z,27.40
2018-07-09T14:07:37.591Z,27.40
2018-07-09T14:10:06.504Z,27.40
2018-07-09T14:12:35.326Z,27.40
2018-07-09T14:15:04.247Z,27.40
2018-07-09T14:17:32.979Z,27.40
2018-07-09T14:20:25.937Z,27.00
2018-07-09T14:22:54.796Z,26.90
2018-07-09T14:25:23.613Z,28.10
2018-07-09T14:27:52.555Z,28.40
2018-07-09T14:30:21.599Z,28.80
2018-07-09T14:32:50.437Z,29.50
2018-07-09T14:35:19.117Z,29.40
2018-07-09T14:40:16.303Z,28.60
2018-07-09T14:42:45.049Z,29.20
2018-07-09T14:45:13.912Z,29.90
2018-07-09T14:47:42.796Z,30.60
2018-07-09T14:50:11.649Z,30.30
2018-07-09T14:52:40.450Z,30.60
2018-07-09T14:55:09.254Z,30.40
2018-07-09T14:57:38.235Z,29.90
2018-07-09T15:00:07.897Z,29.70
2018-07-09T15:02:37.082Z,29.50
2018-07-09T15:05:21.221Z,29.80
2018-07-09T15:07:50.349Z,30.10
2018-07-09T15:10:39.447Z,30.90
2018-07-09T15:13:12.061Z,31.20
2018-07-09T15:15:40.842Z,31.10
2018-07-09T15:18:09.929Z,30.90
2018-07-09T15:20:38.815Z,30.00
2018-07-09T15:23:07.981Z,29.00
2018-07-09T15:25:36.805Z,28.40
2018-07-09T15:28:05.948Z,28.30
2018-07-09T15:30:34.719Z,28.80
2018-07-09T15:33:03.511Z,29.10
2018-07-09T15:35:32.305Z,29.10
2018-07-09T15:38:01.641Z,29.10
2018-07-09T15:40:30.475Z,29.10
2018-07-09T15:42:59.378Z,28.90
2018-07-09T15:45:28.145Z,28.60
2018-07-09T15:47:57.444Z,28.30
2018-07-09T15:50:26.363Z,28.00
2018-07-09T15:52:55.273Z,27.80
2018-07-09T15:55:24.153Z,27.90
2018-07-09T15:57:53.045Z,28.00
2018-07-09T16:00:21.965Z,28.00
2018-07-09T16:02:50.802Z,27.90
2018-07-09T16:05:19.875Z,27.70
2018-07-09T16:07:48.773Z,27.70
2018-07-09T16:10:17.603Z,27.80
2018-07-09T16:15:14.886Z,27.40
2018-07-09T16:17:43.881Z,27.40
2018-07-09T16:20:12.743Z,27.50
2018-07-09T16:22:42.183Z,27.40
2018-07-09T16:25:12.038Z,27.40
2018-07-09T16:27:40.943Z,27.40
2018-07-09T16:30:13.381Z,27.30
2018-07-09T16:32:42.263Z,27.20
2018-07-09T16:35:11.057Z,27.30
2018-07-09T16:37:40.136Z,27.20
2018-07-09T16:40:08.986Z,27.30
2018-07-09T16:42:37.888Z,27.40
2018-07-09T16:45:06.727Z,27.50
2018-07-09T16:47:35.726Z,27.50
2018-07-09T16:50:04.806Z,27.50
2018-07-09T16:52:33.613Z,27.50
2018-07-09T16:55:02.578Z,27.40
2018-07-09T16:57:31.466Z,27.40
2018-07-09T17:04:57.806Z,26.70
2018-07-09T17:07:27.150Z,26.40
2018-07-09T17:09:55.991Z,26.30
2018-07-09T17:12:24.931Z,26.20
2018-07-09T17:14:53.723Z,26.20
2018-07-09T17:17:22.935Z,26.20
2018-07-09T17:19:51.785Z,26.20
2018-07-09T17:22:20.810Z,26.10
2018-07-09T17:24:49.559Z,26.20
2018-07-09T17:27:24.367Z,26.20
2018-07-09T17:29:53.224Z,26.30
2018-07-09T17:32:22.341Z,26.30
2018-07-09T17:34:51.102Z,26.30
2018-07-09T17:37:20.012Z,26.20
2018-07-09T17:39:48.937Z,26.20
2018-07-09T17:44:54.272Z,26.10
2018-07-09T17:47:25.296Z,26.00
2018-07-09T17:49:54.088Z,25.90
2018-07-09T17:52:42.735Z,25.80
2018-07-09T17:55:11.550Z,25.60
2018-07-09T17:57:40.368Z,25.40
2018-07-09T18:00:09.646Z,25.30
2018-07-09T18:02:41.957Z,25.10
2018-07-09T18:07:39.365Z,24.80
2018-07-09T18:10:08.196Z,24.70
2018-07-09T18:12:37.150Z,24.70
2018-07-09T18:15:06.442Z,24.60
2018-07-09T18:17:35.232Z,24.60
2018-07-09T18:20:07.791Z,24.50
2018-07-09T18:22:36.669Z,24.50
2018-07-09T18:25:06.171Z,24.40
2018-07-09T18:27:35.197Z,24.20
2018-07-09T18:30:04.236Z,24.00
2018-07-09T18:32:33.249Z,23.90
2018-07-09T18:35:02.388Z,23.80
2018-07-09T18:37:32.703Z,23.70
2018-07-09T18:40:01.786Z,23.50
2018-07-09T18:42:34.124Z,22.80
2018-07-09T18:45:02.956Z,22.20
2018-07-09T18:47:31.716Z,21.90
2018-07-09T18:50:00.526Z,21.40
2018-07-09T18:52:30.062Z,20.60
2018-07-09T18:54:58.967Z,20.00
2018-07-09T18:57:27.879Z,19.80
2018-07-09T18:59:56.758Z,19.70
2018-07-09T19:04:54.210Z,20.10
2018-07-09T19:07:23.088Z,20.40
2018-07-09T19:09:53.476Z,20.50
2018-07-09T19:12:22.671Z,20.70
2018-07-09T19:14:52.781Z,21.10
2018-07-09T19:18:02.365Z,21.40
2018-07-09T19:20:42.440Z,21.60
2018-07-09T19:23:10.793Z,21.70
2018-07-09T19:25:38.817Z,21.70
2018-07-09T19:28:07.610Z,21.80
2018-07-09T19:30:35.062Z,21.80
2018-07-09T19:33:02.619Z,21.80
2018-07-09T19:35:30.161Z,21.80
2018-07-09T19:37:57.912Z,21.80
2018-07-09T19:40:25.236Z,21.80
2018-07-09T19:42:52.949Z,21.80
2018-07-09T19:45:35.567Z,21.80
2018-07-09T19:48:03.406Z,21.80
2018-07-09T19:50:31.052Z,21.80
2018-07-09T19:52:58.634Z,21.70
2018-07-09T19:55:26.121Z,21.70
2018-07-09T19:57:53.673Z,21.70
2018-07-09T20:00:21.378Z,21.70
2018-07-09T20:02:48.936Z,21.80
2018-07-09T20:05:16.633Z,21.80
2018-07-09T20:07:44.224Z,21.70
2018-07-09T20:11:14.446Z,21.70
2018-07-09T20:13:51.045Z,21.70
2018-07-09T20:16:23.942Z,21.60
2018-07-09T20:18:53.537Z,21.50
2018-07-09T20:21:21.842Z,21.50
2018-07-09T20:23:49.555Z,21.50
2018-07-09T20:28:45.141Z,21.50
2018-07-09T20:31:12.702Z,21.50
2018-07-09T20:33:40.179Z,21.50
2018-07-09T20:36:07.806Z,21.50
2018-07-09T20:38:35.371Z,21.50
2018-07-09T20:41:03.559Z,21.50
2018-07-09T20:43:31.070Z,21.40
2018-07-09T20:45:58.593Z,21.30
2018-07-09T20:48:26.127Z,21.30
2018-07-09T20:50:53.608Z,21.20
2018-07-09T20:53:21.115Z,21.20
2018-07-09T20:55:48.607Z,21.20
2018-07-09T20:58:16.159Z,21.20
2018-07-09T21:00:43.822Z,21.10
2018-07-09T21:03:11.358Z,21.10
2018-07-09T21:05:39.000Z,21.00
2018-07-09T21:08:06.720Z,21.00
2018-07-09T21:10:34.270Z,21.00
2018-07-09T21:13:01.811Z,21.00
2018-07-09T21:15:29.416Z,20.90
2018-07-09T21:20:24.560Z,20.80
2018-07-09T21:22:52.100Z,20.80
2018-07-09T21:25:19.602Z,20.70
2018-07-09T21:27:47.115Z,20.70
2018-07-09T21:30:14.627Z,20.60
2018-07-09T21:32:42.152Z,20.60
2018-07-09T21:35:09.701Z,20.50
2018-07-09T21:37:37.320Z,20.50
2018-07-09T21:40:04.828Z,20.40
2018-07-09T21:42:32.351Z,20.40
2018-07-09T21:44:59.788Z,20.40
2018-07-09T21:47:27.348Z,20.30
2018-07-09T21:49:54.944Z,20.20
2018-07-09T21:52:22.430Z,20.20
2018-07-09T21:54:50.029Z,20.10
2018-07-09T21:57:17.560Z,20.10
2018-07-09T21:59:45.056Z,20.10
2018-07-09T22:02:12.560Z,20.10
2018-07-09T22:04:40.081Z,20.00
2018-07-09T22:07:07.568Z,20.00
2018-07-09T22:09:35.112Z,19.90
2018-07-09T22:12:02.618Z,19.90
2018-07-09T22:14:30.150Z,19.90
2018-07-09T22:16:57.619Z,19.90
2018-07-09T22:19:25.155Z,19.90
2018-07-09T22:21:52.638Z,19.90
2018-07-09T22:24:20.136Z,19.80
2018-07-09T22:26:47.643Z,19.70
2018-07-09T22:29:15.219Z,19.70
2018-07-09T22:31:44.073Z,19.70
2018-07-09T22:34:12.872Z,19.60
2018-07-09T22:36:41.676Z,19.60
2018-07-09T22:39:10.503Z,19.60
2018-07-09T22:41:39.368Z,19.60
2018-07-09T22:44:17.644Z,19.60
2018-07-09T22:46:46.978Z,19.60
2018-07-09T22:49:15.726Z,19.60
2018-07-09T22:51:44.904Z,19.60
2018-07-09T22:54:13.666Z,19.60
2018-07-09T22:56:42.630Z,19.60
2018-07-09T22:59:11.512Z,19.60
2018-07-09T23:01:40.398Z,19.60
2018-07-09T23:04:09.305Z,19.60
2018-07-09T23:06:38.496Z,19.50
2018-07-09T23:10:22.848Z,19.60
2018-07-09T23:13:30.753Z,19.60
2018-07-09T23:16:36.653Z,19.50
2018-07-09T23:19:22.885Z,19.40
2018-07-09T23:22:02.721Z,19.40
2018-07-09T23:24:30.185Z,19.30
2018-07-09T23:26:58.005Z,19.30
2018-07-09T23:29:25.509Z,19.30
2018-07-09T23:31:53.001Z,19.30
2018-07-09T23:34:20.723Z,19.20
2018-07-09T23:36:48.235Z,19.20
2018-07-09T23:41:43.449Z,19.20
2018-07-09T23:44:10.937Z,19.10
2018-07-09T23:46:38.408Z,19.00
2018-07-09T23:49:05.875Z,19.00
2018-07-09T23:51:33.360Z,19.00
2018-07-09T23:54:00.944Z,19.00
2018-07-09T23:59:40.522Z,19.10
